sensor_id;sensor_type;location;lat;lon;timestamp;pressure;altitude;pressure_sealevel;temperature;humidity
15529;BME280;7866;52.280;9.500;2022-09-02T00:04:27;100816.06;;;15.04;59.16
15529;BME280;7866;52.280;9.500;2022-09-02T00:09:29;100815.59;;;15.00;59.47
15529;BME280;7866;52.280;9.500;2022-09-02T00:14:34;100812.69;;;14.87;59.86
15529;BME280;7866;52.280;9.500;2022-09-02T00:19:36;100805.53;;;14.94;59.92
15529;BME280;7866;52.280;9.500;2022-09-02T00:24:38;100808.59;;;14.91;59.87
15529;BME280;7866;52.280;9.500;2022-09-02T00:29:41;100805.84;;;14.85;60.10
15529;BME280;7866;52.280;9.500;2022-09-02T00:34:43;100806.75;;;14.62;60.60
15529;BME280;7866;52.280;9.500;2022-09-02T00:39:45;100796.44;;;14.66;60.49
15529;BME280;7866;52.280;9.500;2022-09-02T00:44:48;100795.22;;;14.68;60.59
15529;BME280;7866;52.280;9.500;2022-09-02T00:49:52;100800.59;;;14.53;61.11
15529;BME280;7866;52.280;9.500;2022-09-02T00:54:57;100794.97;;;14.40;61.77
15529;BME280;7866;52.280;9.500;2022-09-02T01:00:07;100795.22;;;14.53;61.19
15529;BME280;7866;52.280;9.500;2022-09-02T01:05:11;100788.56;;;14.41;61.31
15529;BME280;7866;52.280;9.500;2022-09-02T01:10:27;100785.66;;;14.43;61.49
15529;BME280;7866;52.280;9.500;2022-09-02T01:15:30;100790.22;;;14.42;61.74
15529;BME280;7866;52.280;9.500;2022-09-02T01:20:32;100781.50;;;14.40;61.89
15529;BME280;7866;52.280;9.500;2022-09-02T01:25:36;100778.81;;;14.40;61.80
15529;BME280;7866;52.280;9.500;2022-09-02T01:30:41;100779.44;;;14.42;62.19
15529;BME280;7866;52.280;9.500;2022-09-02T01:35:44;100774.88;;;14.43;61.99
15529;BME280;7866;52.280;9.500;2022-09-02T01:40:47;100771.38;;;14.42;61.74
15529;BME280;7866;52.280;9.500;2022-09-02T01:45:51;100770.34;;;14.43;61.86
15529;BME280;7866;52.280;9.500;2022-09-02T01:50:55;100765.78;;;14.44;61.93
15529;BME280;7866;52.280;9.500;2022-09-02T01:55:59;100750.59;;;14.28;62.41
15529;BME280;7866;52.280;9.500;2022-09-02T02:01:01;100760.47;;;14.21;63.24
15529;BME280;7866;52.280;9.500;2022-09-02T02:06:07;100755.50;;;14.10;63.41
15529;BME280;7866;52.280;9.500;2022-09-02T02:11:11;100749.13;;;14.25;63.24
15529;BME280;7866;52.280;9.500;2022-09-02T02:16:18;100747.34;;;14.18;63.28
15529;BME280;7866;52.280;9.500;2022-09-02T02:21:20;100744.06;;;14.08;63.49
15529;BME280;7866;52.280;9.500;2022-09-02T02:26:24;100750.41;;;14.15;63.78
15529;BME280;7866;52.280;9.500;2022-09-02T02:31:26;100740.09;;;14.18;63.74
15529;BME280;7866;52.280;9.500;2022-09-02T02:36:28;100738.69;;;14.08;64.16
15529;BME280;7866;52.280;9.500;2022-09-02T02:41:31;100744.69;;;13.95;64.53
15529;BME280;7866;52.280;9.500;2022-09-02T02:46:33;100735.97;;;13.93;64.62
15529;BME280;7866;52.280;9.500;2022-09-02T02:51:35;100731.00;;;13.82;65.31
15529;BME280;7866;52.280;9.500;2022-09-02T02:56:39;100730.72;;;13.76;65.50
15529;BME280;7866;52.280;9.500;2022-09-02T03:01:41;100724.53;;;13.68;65.78
15529;BME280;7866;52.280;9.500;2022-09-02T03:06:43;100724.50;;;13.53;66.34
15529;BME280;7866;52.280;9.500;2022-09-02T03:11:46;100726.03;;;13.47;66.46
15529;BME280;7866;52.280;9.500;2022-09-02T03:16:48;100722.44;;;13.32;67.34
15529;BME280;7866;52.280;9.500;2022-09-02T03:21:50;100720.28;;;13.27;67.62
15529;BME280;7866;52.280;9.500;2022-09-02T03:26:53;100717.78;;;13.26;67.73
15529;BME280;7866;52.280;9.500;2022-09-02T03:31:55;100701.28;;;13.29;67.61
15529;BME280;7866;52.280;9.500;2022-09-02T03:36:56;100704.47;;;13.24;67.36
15529;BME280;7866;52.280;9.500;2022-09-02T03:41:59;100700.63;;;13.19;67.32
15529;BME280;7866;52.280;9.500;2022-09-02T03:47:01;100706.34;;;13.16;67.73
15529;BME280;7866;52.280;9.500;2022-09-02T03:52:03;100709.63;;;13.03;68.12
15529;BME280;7866;52.280;9.500;2022-09-02T03:57:07;100707.16;;;12.93;68.70
15529;BME280;7866;52.280;9.500;2022-09-02T04:02:09;100716.75;;;12.88;68.81
15529;BME280;7866;52.280;9.500;2022-09-02T04:07:10;100707.50;;;12.90;69.00
15529;BME280;7866;52.280;9.500;2022-09-02T04:12:13;100709.81;;;13.01;68.27
15529;BME280;7866;52.280;9.500;2022-09-02T04:17:15;100712.34;;;12.95;68.48
15529;BME280;7866;52.280;9.500;2022-09-02T04:22:17;100717.97;;;12.85;68.64
15529;BME280;7866;52.280;9.500;2022-09-02T04:27:20;100708.75;;;12.71;69.33
15529;BME280;7866;52.280;9.500;2022-09-02T04:32:22;100711.78;;;12.68;69.47
15529;BME280;7866;52.280;9.500;2022-09-02T04:37:25;100704.09;;;12.65;70.04
15529;BME280;7866;52.280;9.500;2022-09-02T04:42:29;100710.31;;;12.66;69.85
15529;BME280;7866;52.280;9.500;2022-09-02T04:47:30;100706.44;;;12.60;69.86
15529;BME280;7866;52.280;9.500;2022-09-02T04:52:32;100694.19;;;12.66;69.48
15529;BME280;7866;52.280;9.500;2022-09-02T04:57:35;100705.72;;;12.74;69.74
15529;BME280;7866;52.280;9.500;2022-09-02T05:02:37;100698.81;;;12.80;69.37
15529;BME280;7866;52.280;9.500;2022-09-02T05:07:39;100701.13;;;12.91;69.31
15529;BME280;7866;52.280;9.500;2022-09-02T05:12:42;100696.00;;;13.04;68.77
15529;BME280;7866;52.280;9.500;2022-09-02T05:17:44;100704.50;;;13.16;68.69
15529;BME280;7866;52.280;9.500;2022-09-02T05:22:46;100695.25;;;13.19;68.59
15529;BME280;7866;52.280;9.500;2022-09-02T05:27:50;100693.25;;;13.21;68.46
15529;BME280;7866;52.280;9.500;2022-09-02T05:32:52;100692.06;;;13.23;68.79
15529;BME280;7866;52.280;9.500;2022-09-02T05:37:54;100696.91;;;13.28;68.87
15529;BME280;7866;52.280;9.500;2022-09-02T05:42:57;100685.72;;;13.39;68.68
15529;BME280;7866;52.280;9.500;2022-09-02T05:47:58;100691.06;;;13.47;68.53
15529;BME280;7866;52.280;9.500;2022-09-02T05:53:20;100687.88;;;13.67;68.08
15529;BME280;7866;52.280;9.500;2022-09-02T05:58:23;100679.19;;;13.79;67.97
15529;BME280;7866;52.280;9.500;2022-09-02T06:03:25;100686.69;;;14.07;67.21
15529;BME280;7866;52.280;9.500;2022-09-02T06:08:26;100689.50;;;14.43;66.08
15529;BME280;7866;52.280;9.500;2022-09-02T06:13:32;100685.22;;;14.93;64.99
15529;BME280;7866;52.280;9.500;2022-09-02T06:18:35;100693.88;;;15.25;64.13
15529;BME280;7866;52.280;9.500;2022-09-02T06:23:38;100683.63;;;15.78;63.06
15529;BME280;7866;52.280;9.500;2022-09-02T06:28:41;100690.22;;;16.25;61.99
15529;BME280;7866;52.280;9.500;2022-09-02T06:33:44;100693.09;;;16.58;61.85
15529;BME280;7866;52.280;9.500;2022-09-02T06:38:48;100689.53;;;16.51;61.87
15529;BME280;7866;52.280;9.500;2022-09-02T06:43:54;100692.94;;;16.66;61.93
15529;BME280;7866;52.280;9.500;2022-09-02T06:48:56;100695.59;;;16.53;62.43
15529;BME280;7866;52.280;9.500;2022-09-02T06:53:58;100688.22;;;16.75;61.73
15529;BME280;7866;52.280;9.500;2022-09-02T06:59:02;100687.38;;;17.29;60.71
15529;BME280;7866;52.280;9.500;2022-09-02T07:04:04;100692.44;;;17.59;60.22
15529;BME280;7866;52.280;9.500;2022-09-02T07:09:26;100689.44;;;17.27;60.75
15529;BME280;7866;52.280;9.500;2022-09-02T07:14:35;100688.03;;;17.51;60.64
15529;BME280;7866;52.280;9.500;2022-09-02T07:19:37;100695.78;;;17.74;59.72
15529;BME280;7866;52.280;9.500;2022-09-02T07:24:39;100692.25;;;18.07;59.36
15529;BME280;7866;52.280;9.500;2022-09-02T07:29:42;100690.00;;;17.97;59.26
15529;BME280;7866;52.280;9.500;2022-09-02T07:34:45;100694.16;;;18.13;59.34
15529;BME280;7866;52.280;9.500;2022-09-02T07:39:46;100692.78;;;18.62;57.93
15529;BME280;7866;52.280;9.500;2022-09-02T07:44:50;100686.53;;;18.68;58.04
15529;BME280;7866;52.280;9.500;2022-09-02T07:49:52;100692.16;;;18.73;57.60
15529;BME280;7866;52.280;9.500;2022-09-02T07:54:54;100680.81;;;18.96;57.51
15529;BME280;7866;52.280;9.500;2022-09-02T08:00:00;100680.03;;;19.27;56.79
15529;BME280;7866;52.280;9.500;2022-09-02T08:05:02;100681.84;;;19.33;56.52
15529;BME280;7866;52.280;9.500;2022-09-02T08:10:07;100683.84;;;19.51;56.36
15529;BME280;7866;52.280;9.500;2022-09-02T08:15:14;100686.63;;;19.38;56.42
15529;BME280;7866;52.280;9.500;2022-09-02T08:20:16;100679.72;;;19.04;56.97
15529;BME280;7866;52.280;9.500;2022-09-02T08:25:18;100684.03;;;19.18;56.82
15529;BME280;7866;52.280;9.500;2022-09-02T08:30:21;100684.41;;;18.83;57.68
15529;BME280;7866;52.280;9.500;2022-09-02T08:35:23;100679.34;;;18.93;57.32
15529;BME280;7866;52.280;9.500;2022-09-02T08:40:30;100672.81;;;19.08;56.65
15529;BME280;7866;52.280;9.500;2022-09-02T08:45:37;100668.97;;;19.54;56.27
15529;BME280;7866;52.280;9.500;2022-09-02T08:50:42;100675.44;;;19.28;55.71
15529;BME280;7866;52.280;9.500;2022-09-02T08:55:49;100672.88;;;19.71;55.09
15529;BME280;7866;52.280;9.500;2022-09-02T09:01:02;100667.06;;;19.86;54.43
15529;BME280;7866;52.280;9.500;2022-09-02T09:06:12;100669.63;;;19.81;54.05
15529;BME280;7866;52.280;9.500;2022-09-02T09:11:22;100658.19;;;19.97;53.02
15529;BME280;7866;52.280;9.500;2022-09-02T09:16:38;100654.50;;;20.35;52.89
15529;BME280;7866;52.280;9.500;2022-09-02T09:21:41;100638.41;;;20.52;52.85
15529;BME280;7866;52.280;9.500;2022-09-02T09:26:44;100641.41;;;20.80;51.88
15529;BME280;7866;52.280;9.500;2022-09-02T09:31:53;100637.44;;;21.25;51.32
15529;BME280;7866;52.280;9.500;2022-09-02T09:36:56;100627.69;;;21.35;51.18
15529;BME280;7866;52.280;9.500;2022-09-02T09:41:59;100620.03;;;21.56;50.45
15529;BME280;7866;52.280;9.500;2022-09-02T09:47:05;100622.06;;;21.96;49.28
15529;BME280;7866;52.280;9.500;2022-09-02T09:52:07;100612.00;;;22.31;48.64
15529;BME280;7866;52.280;9.500;2022-09-02T09:57:15;100604.94;;;22.47;47.99
15529;BME280;7866;52.280;9.500;2022-09-02T10:02:21;100585.16;;;22.69;47.24
15529;BME280;7866;52.280;9.500;2022-09-02T10:07:34;100599.91;;;22.68;46.20
15529;BME280;7866;52.280;9.500;2022-09-02T10:12:36;100597.53;;;23.00;47.13
15529;BME280;7866;52.280;9.500;2022-09-02T10:17:46;100588.00;;;23.31;45.54
15529;BME280;7866;52.280;9.500;2022-09-02T10:23:14;100574.59;;;23.46;42.61
15529;BME280;7866;52.280;9.500;2022-09-02T10:28:32;100575.78;;;23.05;45.49
15529;BME280;7866;52.280;9.500;2022-09-02T10:33:48;100566.34;;;23.13;43.80
15529;BME280;7866;52.280;9.500;2022-09-02T10:38:52;100559.72;;;23.25;45.19
15529;BME280;7866;52.280;9.500;2022-09-02T10:44:02;100553.03;;;23.16;44.52
15529;BME280;7866;52.280;9.500;2022-09-02T10:49:13;100555.66;;;22.54;45.55
15529;BME280;7866;52.280;9.500;2022-09-02T10:54:32;100542.00;;;22.94;44.40
15529;BME280;7866;52.280;9.500;2022-09-02T10:59:39;100534.66;;;22.83;44.67
15529;BME280;7866;52.280;9.500;2022-09-02T11:04:47;100528.31;;;23.61;42.00
15529;BME280;7866;52.280;9.500;2022-09-02T11:09:53;100513.00;;;23.77;42.00
15529;BME280;7866;52.280;9.500;2022-09-02T11:15:02;100526.59;;;23.22;43.33
15529;BME280;7866;52.280;9.500;2022-09-02T11:20:25;100512.53;;;24.02;42.25
15529;BME280;7866;52.280;9.500;2022-09-02T11:25:36;100517.41;;;24.00;42.21
15529;BME280;7866;52.280;9.500;2022-09-02T11:30:43;100514.69;;;24.22;40.96
15529;BME280;7866;52.280;9.500;2022-09-02T11:35:47;100511.34;;;24.64;41.05
15529;BME280;7866;52.280;9.500;2022-09-02T11:46:46;100497.28;;;24.55;39.20
15529;BME280;7866;52.280;9.500;2022-09-02T11:52:00;100501.25;;;24.97;38.38
15529;BME280;7866;52.280;9.500;2022-09-02T11:57:04;100505.75;;;23.88;40.75
15529;BME280;7866;52.280;9.500;2022-09-02T12:02:07;100511.00;;;24.12;39.92
15529;BME280;7866;52.280;9.500;2022-09-02T12:07:27;100492.63;;;24.56;36.26
15529;BME280;7866;52.280;9.500;2022-09-02T12:13:02;100479.81;;;23.91;37.75
15529;BME280;7866;52.280;9.500;2022-09-02T12:18:13;100480.81;;;24.28;37.29
15529;BME280;7866;52.280;9.500;2022-09-02T12:28:52;100470.75;;;24.34;38.89
15529;BME280;7866;52.280;9.500;2022-09-02T12:33:54;100466.44;;;24.97;38.64
15529;BME280;7866;52.280;9.500;2022-09-02T12:44:45;100463.19;;;24.41;38.90
15529;BME280;7866;52.280;9.500;2022-09-02T12:49:53;100452.13;;;24.09;39.51
15529;BME280;7866;52.280;9.500;2022-09-02T12:55:08;100438.13;;;24.05;39.00
15529;BME280;7866;52.280;9.500;2022-09-02T13:00:16;100443.19;;;24.41;39.13
15529;BME280;7866;52.280;9.500;2022-09-02T13:05:24;100438.66;;;24.83;37.98
15529;BME280;7866;52.280;9.500;2022-09-02T13:10:38;100437.19;;;25.40;36.37
15529;BME280;7866;52.280;9.500;2022-09-02T13:16:00;100438.28;;;25.39;35.61
15529;BME280;7866;52.280;9.500;2022-09-02T13:26:52;100416.75;;;25.16;35.33
15529;BME280;7866;52.280;9.500;2022-09-02T13:31:59;100413.38;;;25.51;35.96
15529;BME280;7866;52.280;9.500;2022-09-02T13:37:04;100411.06;;;24.58;38.19
15529;BME280;7866;52.280;9.500;2022-09-02T13:42:13;100401.78;;;24.64;38.45
15529;BME280;7866;52.280;9.500;2022-09-02T13:47:19;100404.28;;;25.03;36.85
15529;BME280;7866;52.280;9.500;2022-09-02T13:52:22;100400.81;;;25.65;35.82
15529;BME280;7866;52.280;9.500;2022-09-02T13:57:26;100389.25;;;25.53;36.30
15529;BME280;7866;52.280;9.500;2022-09-02T14:02:31;100391.16;;;24.68;37.70
15529;BME280;7866;52.280;9.500;2022-09-02T14:07:36;100383.25;;;24.76;37.63
15529;BME280;7866;52.280;9.500;2022-09-02T14:12:39;100376.81;;;25.93;35.83
15529;BME280;7866;52.280;9.500;2022-09-02T14:17:42;100388.91;;;25.97;36.14
15529;BME280;7866;52.280;9.500;2022-09-02T14:22:51;100371.66;;;26.01;34.73
15529;BME280;7866;52.280;9.500;2022-09-02T14:27:55;100383.13;;;25.30;36.84
15529;BME280;7866;52.280;9.500;2022-09-02T14:33:23;100375.81;;;25.51;35.86
15529;BME280;7866;52.280;9.500;2022-09-02T14:38:29;100367.28;;;25.00;36.65
15529;BME280;7866;52.280;9.500;2022-09-02T14:43:40;100372.63;;;24.80;36.63
15529;BME280;7866;52.280;9.500;2022-09-02T14:48:51;100374.75;;;24.73;36.29
15529;BME280;7866;52.280;9.500;2022-09-02T14:53:55;100367.50;;;24.29;37.35
15529;BME280;7866;52.280;9.500;2022-09-02T14:58:56;100362.41;;;24.38;37.17
15529;BME280;7866;52.280;9.500;2022-09-02T15:04:00;100369.81;;;24.16;37.23
15529;BME280;7866;52.280;9.500;2022-09-02T15:09:02;100355.34;;;23.93;37.45
15529;BME280;7866;52.280;9.500;2022-09-02T15:14:03;100351.84;;;23.71;37.16
15529;BME280;7866;52.280;9.500;2022-09-02T15:19:06;100356.63;;;23.85;36.66
15529;BME280;7866;52.280;9.500;2022-09-02T15:24:08;100349.19;;;24.03;37.23
15529;BME280;7866;52.280;9.500;2022-09-02T15:29:10;100350.38;;;24.39;36.16
15529;BME280;7866;52.280;9.500;2022-09-02T15:34:14;100342.06;;;24.61;35.07
15529;BME280;7866;52.280;9.500;2022-09-02T15:39:15;100332.66;;;24.84;35.55
15529;BME280;7866;52.280;9.500;2022-09-02T15:44:18;100332.75;;;24.03;36.03
15529;BME280;7866;52.280;9.500;2022-09-02T15:49:22;100324.88;;;24.06;36.45
15529;BME280;7866;52.280;9.500;2022-09-02T15:54:24;100325.84;;;24.22;36.72
15529;BME280;7866;52.280;9.500;2022-09-02T15:59:26;100318.47;;;23.96;36.32
15529;BME280;7866;52.280;9.500;2022-09-02T16:04:29;100316.16;;;23.82;36.55
15529;BME280;7866;52.280;9.500;2022-09-02T16:09:30;100316.22;;;23.66;36.62
15529;BME280;7866;52.280;9.500;2022-09-02T16:14:32;100313.97;;;23.63;37.05
15529;BME280;7866;52.280;9.500;2022-09-02T16:19:35;100310.75;;;23.44;37.04
15529;BME280;7866;52.280;9.500;2022-09-02T16:24:37;100301.34;;;23.34;37.29
15529;BME280;7866;52.280;9.500;2022-09-02T16:29:38;100298.75;;;23.23;37.07
15529;BME280;7866;52.280;9.500;2022-09-02T16:34:42;100301.00;;;23.09;37.69
15529;BME280;7866;52.280;9.500;2022-09-02T16:39:44;100294.28;;;22.95;38.16
15529;BME280;7866;52.280;9.500;2022-09-02T16:44:46;100296.16;;;22.77;38.06
15529;BME280;7866;52.280;9.500;2022-09-02T16:49:49;100286.47;;;22.86;37.79
15529;BME280;7866;52.280;9.500;2022-09-02T16:54:51;100289.72;;;22.83;37.48
15529;BME280;7866;52.280;9.500;2022-09-02T16:59:52;100282.50;;;22.77;37.39
15529;BME280;7866;52.280;9.500;2022-09-02T17:04:55;100275.81;;;22.68;37.86
15529;BME280;7866;52.280;9.500;2022-09-02T17:09:57;100280.06;;;22.59;37.88
15529;BME280;7866;52.280;9.500;2022-09-02T17:14:59;100284.78;;;22.47;38.15
15529;BME280;7866;52.280;9.500;2022-09-02T17:20:03;100277.75;;;22.34;38.42
15529;BME280;7866;52.280;9.500;2022-09-02T17:25:05;100287.59;;;22.35;38.13
15529;BME280;7866;52.280;9.500;2022-09-02T17:30:09;100278.47;;;22.12;38.07
15529;BME280;7866;52.280;9.500;2022-09-02T17:35:13;100282.75;;;22.08;38.28
15529;BME280;7866;52.280;9.500;2022-09-02T17:40:14;100288.19;;;21.92;38.63
15529;BME280;7866;52.280;9.500;2022-09-02T17:45:34;100283.81;;;21.62;39.76
15529;BME280;7866;52.280;9.500;2022-09-02T17:50:38;100284.41;;;21.35;40.53
15529;BME280;7866;52.280;9.500;2022-09-02T17:55:40;100299.94;;;21.11;40.97
15529;BME280;7866;52.280;9.500;2022-09-02T18:00:42;100297.81;;;20.78;42.06
15529;BME280;7866;52.280;9.500;2022-09-02T18:06:10;100306.22;;;20.65;42.40
15529;BME280;7866;52.280;9.500;2022-09-02T18:11:15;100294.16;;;20.84;41.12
15529;BME280;7866;52.280;9.500;2022-09-02T18:16:30;100308.50;;;20.68;42.00
15529;BME280;7866;52.280;9.500;2022-09-02T18:21:40;100314.47;;;20.47;43.15
15529;BME280;7866;52.280;9.500;2022-09-02T18:26:51;100316.09;;;20.24;43.86
15529;BME280;7866;52.280;9.500;2022-09-02T18:32:04;100325.63;;;20.03;44.12
15529;BME280;7866;52.280;9.500;2022-09-02T18:37:13;100321.84;;;20.04;44.34
15529;BME280;7866;52.280;9.500;2022-09-02T18:42:30;100331.47;;;19.88;44.87
15529;BME280;7866;52.280;9.500;2022-09-02T18:47:38;100330.28;;;19.84;45.05
15529;BME280;7866;52.280;9.500;2022-09-02T18:52:42;100337.41;;;19.67;45.09
15529;BME280;7866;52.280;9.500;2022-09-02T18:57:51;100340.13;;;19.49;44.98
15529;BME280;7866;52.280;9.500;2022-09-02T19:02:56;100345.53;;;19.49;45.00
15529;BME280;7866;52.280;9.500;2022-09-02T19:08:04;100346.09;;;19.39;45.36
15529;BME280;7866;52.280;9.500;2022-09-02T19:13:24;100358.28;;;19.30;45.44
15529;BME280;7866;52.280;9.500;2022-09-02T19:18:28;100364.16;;;19.27;45.51
15529;BME280;7866;52.280;9.500;2022-09-02T19:23:31;100361.47;;;19.45;43.97
15529;BME280;7866;52.280;9.500;2022-09-02T19:28:33;100368.03;;;19.56;43.68
15529;BME280;7866;52.280;9.500;2022-09-02T19:33:35;100360.56;;;19.51;43.22
15529;BME280;7866;52.280;9.500;2022-09-02T19:38:38;100369.41;;;19.65;43.24
15529;BME280;7866;52.280;9.500;2022-09-02T19:43:40;100366.81;;;19.52;43.43
15529;BME280;7866;52.280;9.500;2022-09-02T19:48:41;100365.53;;;19.54;43.22
15529;BME280;7866;52.280;9.500;2022-09-02T19:58:47;100377.25;;;19.36;44.20
15529;BME280;7866;52.280;9.500;2022-09-02T20:03:49;100372.06;;;19.10;45.24
15529;BME280;7866;52.280;9.500;2022-09-02T20:08:51;100378.84;;;19.01;45.18
15529;BME280;7866;52.280;9.500;2022-09-02T20:13:54;100387.88;;;18.94;45.55
15529;BME280;7866;52.280;9.500;2022-09-02T20:18:56;100382.81;;;18.80;45.52
15529;BME280;7866;52.280;9.500;2022-09-02T20:23:58;100395.16;;;18.76;45.91
15529;BME280;7866;52.280;9.500;2022-09-02T20:29:17;100396.50;;;18.60;47.39
15529;BME280;7866;52.280;9.500;2022-09-02T20:34:33;100397.47;;;18.40;47.46
15529;BME280;7866;52.280;9.500;2022-09-02T20:39:45;100399.69;;;18.18;47.83
15529;BME280;7866;52.280;9.500;2022-09-02T20:45:00;100405.63;;;18.02;48.66
15529;BME280;7866;52.280;9.500;2022-09-02T20:50:27;100404.81;;;17.95;48.69
15529;BME280;7866;52.280;9.500;2022-09-02T20:55:37;100406.53;;;17.83;49.10
15529;BME280;7866;52.280;9.500;2022-09-02T21:00:46;100408.03;;;17.72;49.29
15529;BME280;7866;52.280;9.500;2022-09-02T21:05:52;100405.56;;;17.64;49.42
15529;BME280;7866;52.280;9.500;2022-09-02T21:10:59;100401.41;;;17.55;49.62
15529;BME280;7866;52.280;9.500;2022-09-02T21:16:06;100387.50;;;17.31;50.37
15529;BME280;7866;52.280;9.500;2022-09-02T21:21:16;100404.44;;;17.20;50.33
15529;BME280;7866;52.280;9.500;2022-09-02T21:26:26;100415.25;;;17.13;50.39
15529;BME280;7866;52.280;9.500;2022-09-02T21:31:38;100402.78;;;17.06;51.01
15529;BME280;7866;52.280;9.500;2022-09-02T21:36:42;100399.66;;;16.95;51.02
15529;BME280;7866;52.280;9.500;2022-09-02T21:41:48;100399.44;;;16.90;51.21
15529;BME280;7866;52.280;9.500;2022-09-02T21:47:02;100399.47;;;16.77;51.59
15529;BME280;7866;52.280;9.500;2022-09-02T21:52:13;100394.88;;;16.78;51.48
15529;BME280;7866;52.280;9.500;2022-09-02T21:57:36;100401.72;;;16.67;51.71
15529;BME280;7866;52.280;9.500;2022-09-02T22:02:48;100390.50;;;16.57;52.09
15529;BME280;7866;52.280;9.500;2022-09-02T22:08:03;100383.19;;;16.50;52.07
15529;BME280;7866;52.280;9.500;2022-09-02T22:13:09;100377.56;;;16.45;51.66
15529;BME280;7866;52.280;9.500;2022-09-02T22:18:17;100380.47;;;16.31;53.03
15529;BME280;7866;52.280;9.500;2022-09-02T22:23:24;100373.38;;;16.23;52.61
15529;BME280;7866;52.280;9.500;2022-09-02T22:28:31;100376.09;;;16.23;53.06
15529;BME280;7866;52.280;9.500;2022-09-02T22:33:40;100376.72;;;16.25;53.22
15529;BME280;7866;52.280;9.500;2022-09-02T22:38:48;100366.28;;;16.15;53.29
15529;BME280;7866;52.280;9.500;2022-09-02T22:43:54;100369.44;;;16.12;53.62
15529;BME280;7866;52.280;9.500;2022-09-02T22:49:02;100372.31;;;16.04;54.02
15529;BME280;7866;52.280;9.500;2022-09-02T22:54:24;100373.09;;;15.85;54.07
15529;BME280;7866;52.280;9.500;2022-09-02T22:59:38;100371.25;;;15.92;54.65
15529;BME280;7866;52.280;9.500;2022-09-02T23:04:58;100372.25;;;15.91;54.46
15529;BME280;7866;52.280;9.500;2022-09-02T23:10:09;100366.63;;;15.72;54.03
15529;BME280;7866;52.280;9.500;2022-09-02T23:15:22;100361.66;;;15.76;54.44
15529;BME280;7866;52.280;9.500;2022-09-02T23:20:34;100355.78;;;15.66;54.96
15529;BME280;7866;52.280;9.500;2022-09-02T23:26:05;100357.03;;;15.70;55.53
15529;BME280;7866;52.280;9.500;2022-09-02T23:31:15;100352.81;;;15.61;54.74
15529;BME280;7866;52.280;9.500;2022-09-02T23:36:29;100353.00;;;15.52;55.16
15529;BME280;7866;52.280;9.500;2022-09-02T23:41:34;100343.00;;;15.46;55.11
15529;BME280;7866;52.280;9.500;2022-09-02T23:46:46;100331.78;;;15.43;55.76
15529;BME280;7866;52.280;9.500;2022-09-02T23:51:56;100327.97;;;15.31;55.94
15529;BME280;7866;52.280;9.500;2022-09-02T23:57:14;100329.84;;;15.30;55.97
